createdAt,value
2023-04-23T00:00:32.983Z,45.75
2023-04-23T00:03:01.033Z,45.92
2023-04-23T00:05:28.824Z,50.15
2023-04-23T00:07:56.327Z,43.87
2023-04-23T00:10:24.124Z,45.22
2023-04-23T00:12:51.693Z,47.72
2023-04-23T00:15:21.562Z,50.47
2023-04-23T00:20:16.594Z,49.80
2023-04-23T00:22:43.960Z,40.33
2023-04-23T00:25:11.706Z,41.95
2023-04-23T00:27:39.085Z,47.33
2023-04-23T00:30:07.255Z,44.03
2023-04-23T00:32:35.052Z,44.42
2023-04-23T00:35:02.480Z,44.55
2023-04-23T00:37:30.827Z,44.92
2023-04-23T00:39:58.539Z,43.00
2023-04-23T00:42:26.953Z,41.03
2023-04-23T00:44:54.400Z,42.78
2023-04-23T00:47:22.205Z,41.30
2023-04-23T00:49:50.873Z,39.53
2023-04-23T00:52:18.289Z,44.42
2023-04-23T00:54:46.039Z,40.97
2023-04-23T00:57:13.470Z,41.60
2023-04-23T00:59:40.894Z,42.67
2023-04-23T01:02:08.684Z,38.67
2023-04-23T01:04:36.513Z,40.60
2023-04-23T01:07:04.612Z,40.40
2023-04-23T01:09:32.600Z,40.38
2023-04-23T01:12:00.023Z,38.97
2023-04-23T01:14:27.411Z,41.20
2023-04-23T01:16:56.304Z,34.83
2023-04-23T01:19:23.759Z,37.92
2023-04-23T01:21:51.358Z,39.78
2023-04-23T01:24:19.074Z,37.90
2023-04-23T01:26:46.836Z,38.45
2023-04-23T01:29:14.245Z,39.30
2023-04-23T01:31:41.912Z,38.22
2023-04-23T01:34:10.505Z,36.50
2023-04-23T01:36:37.925Z,38.55
2023-04-23T01:39:06.225Z,39.65
2023-04-23T01:41:33.952Z,38.20
2023-04-23T01:44:01.532Z,40.60
2023-04-23T01:46:29.237Z,38.58
2023-04-23T01:48:56.663Z,38.03
2023-04-23T01:51:25.725Z,40.65
2023-04-23T01:53:53.474Z,37.88
2023-04-23T01:56:21.470Z,37.25
2023-04-23T01:58:48.912Z,38.88
2023-04-23T02:01:16.651Z,41.20
2023-04-23T02:03:45.196Z,34.33
2023-04-23T02:06:14.242Z,35.63
2023-04-23T02:08:42.401Z,40.85
2023-04-23T02:11:10.180Z,35.60
2023-04-23T02:13:37.869Z,38.42
2023-04-23T02:16:05.843Z,36.63
2023-04-23T02:18:33.293Z,35.97
2023-04-23T02:21:01.960Z,37.38
2023-04-23T02:23:29.488Z,36.97
2023-04-23T02:25:57.231Z,35.03
2023-04-23T02:28:24.921Z,34.90
2023-04-23T02:30:52.368Z,37.53
2023-04-23T02:33:20.033Z,32.25
2023-04-23T02:35:47.784Z,35.60
2023-04-23T02:38:15.276Z,34.13
2023-04-23T02:40:43.762Z,35.30
2023-04-23T02:43:11.597Z,35.10
2023-04-23T02:45:39.051Z,36.45
2023-04-23T02:48:06.581Z,33.45
2023-04-23T02:50:35.171Z,37.70
2023-04-23T02:53:02.632Z,35.28
2023-04-23T02:55:32.005Z,31.73
2023-04-23T02:57:59.951Z,39.92
2023-04-23T03:00:27.621Z,39.10
2023-04-23T03:02:55.191Z,35.10
2023-04-23T03:05:23.111Z,33.38
2023-04-23T03:07:50.566Z,34.22
2023-04-23T03:10:17.999Z,31.52
2023-04-23T03:12:46.171Z,35.55
2023-04-23T03:15:13.792Z,33.00
2023-04-23T03:17:41.560Z,33.83
2023-04-23T03:20:11.531Z,33.65
2023-04-23T03:22:39.239Z,33.08
2023-04-23T03:25:07.132Z,34.00
2023-04-23T03:27:35.339Z,36.15
2023-04-23T03:30:03.278Z,31.55
2023-04-23T03:32:31.738Z,33.80
2023-04-23T03:34:59.522Z,34.95
2023-04-23T03:37:27.579Z,33.78
2023-04-23T03:39:55.017Z,31.90
2023-04-23T03:42:22.820Z,32.00
2023-04-23T03:44:50.590Z,32.55
2023-04-23T03:47:18.190Z,36.53
2023-04-23T03:49:46.047Z,30.80
2023-04-23T03:52:13.746Z,32.60
2023-04-23T03:54:42.469Z,28.73
2023-04-23T03:57:12.162Z,35.55
2023-04-23T03:59:39.781Z,31.77
2023-04-23T04:02:08.930Z,29.50
2023-04-23T04:04:37.107Z,33.08
2023-04-23T04:07:05.639Z,32.88
2023-04-23T04:09:33.088Z,30.17
2023-04-23T04:12:01.773Z,30.58
2023-04-23T04:14:29.206Z,30.95
2023-04-23T04:16:57.014Z,28.38
2023-04-23T04:19:24.804Z,31.02
2023-04-23T04:21:52.220Z,26.83
2023-04-23T04:24:19.699Z,28.80
2023-04-23T04:26:47.674Z,29.87
2023-04-23T04:29:15.087Z,31.70
2023-04-23T04:31:42.590Z,31.00
2023-04-23T04:34:10.547Z,29.70
2023-04-23T04:36:38.014Z,30.85
2023-04-23T04:39:05.505Z,32.38
2023-04-23T04:41:33.551Z,26.85
2023-04-23T04:44:01.073Z,31.08
2023-04-23T04:46:29.889Z,26.27
2023-04-23T04:48:57.609Z,28.05
2023-04-23T04:51:25.039Z,31.92
2023-04-23T04:53:52.528Z,27.37
2023-04-23T04:56:20.383Z,30.33
2023-04-23T04:58:48.180Z,30.20
2023-04-23T05:01:16.017Z,27.90
2023-04-23T05:03:44.337Z,27.37
2023-04-23T05:06:11.850Z,32.25
2023-04-23T05:08:39.301Z,26.00
2023-04-23T05:11:07.361Z,27.87
2023-04-23T05:13:34.752Z,27.48
2023-04-23T05:16:02.246Z,29.37
2023-04-23T05:18:30.058Z,34.50
2023-04-23T05:20:57.469Z,26.35
2023-04-23T05:23:25.032Z,29.45
2023-04-23T05:25:55.943Z,27.75
2023-04-23T05:28:23.321Z,26.80
2023-04-23T05:30:50.963Z,25.92
2023-04-23T05:33:18.695Z,25.92
2023-04-23T05:35:46.272Z,23.95
2023-04-23T05:38:13.684Z,27.87
2023-04-23T05:40:41.463Z,26.42
2023-04-23T05:43:08.830Z,26.45
2023-04-23T05:45:36.390Z,25.30
2023-04-23T05:48:04.225Z,26.75
2023-04-23T05:50:31.642Z,23.65
2023-04-23T05:52:59.093Z,27.92
2023-04-23T05:55:26.831Z,23.95
2023-04-23T05:57:54.254Z,25.85
2023-04-23T06:00:21.651Z,26.98
2023-04-23T06:02:49.518Z,29.48
2023-04-23T06:05:17.202Z,28.87
2023-04-23T06:07:44.810Z,28.23
2023-04-23T06:10:12.880Z,33.25
2023-04-23T06:12:42.031Z,30.77
2023-04-23T06:15:10.078Z,24.50
2023-04-23T06:17:38.098Z,25.92
2023-04-23T06:20:06.348Z,28.38
2023-04-23T06:22:33.771Z,23.27
2023-04-23T06:25:02.109Z,26.62
2023-04-23T06:27:29.643Z,27.17
2023-04-23T06:29:58.257Z,24.15
2023-04-23T06:32:25.986Z,23.33
2023-04-23T06:35:00.950Z,27.87
2023-04-23T06:37:31.777Z,25.15
2023-04-23T06:39:59.478Z,23.83
2023-04-23T06:42:26.961Z,24.65
2023-04-23T06:44:57.058Z,27.52
2023-04-23T06:47:24.520Z,18.08
2023-04-23T06:49:52.246Z,18.77
2023-04-23T06:52:19.934Z,17.42
2023-04-23T06:54:47.397Z,23.10
2023-04-23T06:57:14.847Z,22.60
2023-04-23T06:59:42.539Z,15.80
2023-04-23T07:02:10.288Z,16.77
2023-04-23T07:04:37.850Z,18.83
2023-04-23T07:07:06.217Z,17.58
2023-04-23T07:09:33.654Z,14.30
2023-04-23T07:12:02.269Z,15.38
2023-04-23T07:14:29.974Z,13.55
2023-04-23T07:16:57.409Z,15.95
2023-04-23T07:19:25.017Z,15.32
2023-04-23T07:21:53.418Z,15.55
2023-04-23T07:24:20.814Z,15.63
2023-04-23T07:26:48.235Z,16.83
2023-04-23T07:29:16.032Z,15.15
2023-04-23T07:31:43.468Z,15.10
2023-04-23T07:34:11.082Z,14.68
2023-04-23T07:36:38.885Z,14.77
2023-04-23T07:39:06.661Z,14.27
2023-04-23T07:41:34.222Z,14.20
2023-04-23T07:44:02.069Z,12.55
2023-04-23T07:46:29.570Z,14.75
2023-04-23T07:48:57.000Z,14.18
2023-04-23T07:51:26.740Z,14.25
2023-04-23T07:53:54.539Z,10.55
2023-04-23T07:56:22.579Z,15.05
2023-04-23T07:58:50.771Z,11.12
2023-04-23T08:01:18.184Z,12.48
2023-04-23T08:03:46.131Z,11.82
2023-04-23T08:06:13.726Z,11.07
2023-04-23T08:08:41.126Z,13.38
2023-04-23T08:11:08.842Z,10.90
2023-04-23T08:13:36.435Z,11.75
2023-04-23T08:16:03.902Z,9.88
2023-04-23T08:18:31.587Z,9.25
2023-04-23T08:20:59.550Z,10.90
2023-04-23T08:23:27.678Z,10.57
2023-04-23T08:25:55.501Z,12.70
2023-04-23T08:28:22.889Z,11.20
2023-04-23T08:30:50.414Z,10.30
2023-04-23T08:33:18.120Z,10.25
2023-04-23T08:35:46.653Z,11.60
2023-04-23T08:38:14.026Z,9.85
2023-04-23T08:40:42.419Z,9.20
2023-04-23T08:43:21.934Z,10.52
2023-04-23T08:45:49.750Z,12.15
2023-04-23T08:48:17.192Z,11.93
2023-04-23T08:50:44.768Z,13.30
2023-04-23T08:53:12.526Z,12.50
2023-04-23T08:55:40.045Z,10.57
2023-04-23T08:58:07.534Z,16.10
2023-04-23T09:00:35.510Z,11.77
2023-04-23T09:03:03.194Z,9.55
2023-04-23T09:05:31.061Z,12.88
2023-04-23T09:07:59.916Z,12.13
2023-04-23T09:10:27.377Z,11.93
2023-04-23T09:12:54.829Z,13.20
2023-04-23T09:15:22.501Z,13.15
2023-04-23T09:17:51.418Z,8.57
2023-04-23T09:20:18.876Z,8.52
2023-04-23T09:22:50.644Z,13.00
2023-04-23T09:25:19.374Z,12.18
2023-04-23T09:27:48.243Z,9.57
2023-04-23T09:30:15.859Z,12.68
2023-04-23T09:32:45.962Z,11.30
2023-04-23T09:35:15.350Z,11.27
2023-04-23T09:37:44.050Z,13.57
2023-04-23T09:40:13.120Z,15.18
2023-04-23T09:42:41.024Z,10.48
2023-04-23T09:45:10.951Z,8.25
2023-04-23T09:47:39.569Z,10.80
2023-04-23T09:50:10.413Z,11.43
2023-04-23T09:52:41.201Z,10.02
2023-04-23T09:55:09.512Z,11.90
2023-04-23T09:57:46.656Z,10.60
2023-04-23T10:00:23.103Z,9.77
2023-04-23T10:02:51.443Z,7.28
2023-04-23T10:07:50.959Z,9.30
2023-04-23T10:10:19.526Z,9.05
2023-04-23T10:12:54.708Z,8.60
2023-04-23T10:15:26.663Z,6.62
2023-04-23T10:17:54.606Z,7.80
2023-04-23T10:20:22.753Z,7.43
2023-04-23T10:22:50.495Z,7.00
2023-04-23T10:25:17.913Z,8.25
2023-04-23T10:27:52.901Z,9.35
2023-04-23T10:30:22.276Z,12.80
2023-04-23T10:32:50.147Z,9.02
2023-04-23T10:35:17.712Z,10.82
2023-04-23T10:37:47.058Z,7.80
2023-04-23T10:40:15.448Z,7.60
2023-04-23T10:42:43.561Z,8.27
2023-04-23T10:45:24.085Z,7.87
2023-04-23T10:47:54.315Z,6.53
2023-04-23T10:50:24.120Z,7.85
2023-04-23T10:52:53.651Z,6.53
2023-04-23T10:55:22.774Z,9.32
2023-04-23T10:58:07.418Z,7.17
2023-04-23T11:00:40.954Z,6.25
2023-04-23T11:03:44.875Z,10.85
2023-04-23T11:06:19.478Z,7.70
2023-04-23T11:08:57.048Z,6.57
2023-04-23T11:11:40.308Z,6.78
2023-04-23T11:14:14.313Z,7.45
2023-04-23T11:16:41.923Z,9.30
2023-04-23T11:19:12.370Z,7.18
2023-04-23T11:21:58.788Z,9.20
2023-04-23T11:24:42.111Z,8.77
2023-04-23T11:27:11.174Z,9.20
2023-04-23T11:29:40.374Z,7.30
2023-04-23T11:32:12.828Z,6.97
2023-04-23T11:34:41.944Z,9.52
2023-04-23T11:37:13.261Z,7.07
2023-04-23T11:39:42.076Z,9.27
2023-04-23T11:42:16.398Z,7.53
2023-04-23T11:44:45.149Z,9.82
2023-04-23T11:47:13.938Z,7.75
2023-04-23T11:49:43.186Z,8.90
2023-04-23T11:52:11.425Z,8.05
2023-04-23T11:54:40.844Z,8.55
2023-04-23T11:57:08.544Z,6.05
2023-04-23T11:59:36.262Z,6.93
2023-04-23T12:02:03.750Z,9.23
2023-04-23T12:04:31.950Z,8.30
2023-04-23T12:06:59.996Z,9.98
2023-04-23T12:09:28.803Z,6.97
2023-04-23T12:11:58.167Z,7.90
2023-04-23T12:14:30.097Z,7.40
2023-04-23T12:16:58.284Z,15.57
2023-04-23T12:19:27.402Z,7.05
2023-04-23T12:22:00.978Z,6.18
2023-04-23T12:24:30.483Z,7.18
2023-04-23T12:27:00.615Z,7.43
2023-04-23T12:29:30.250Z,8.63
2023-04-23T12:31:58.950Z,9.48
2023-04-23T12:34:26.357Z,12.15
2023-04-23T12:36:55.112Z,6.57
2023-04-23T12:39:30.722Z,7.50
2023-04-23T12:42:05.674Z,8.05
2023-04-23T12:44:37.311Z,7.78
2023-04-23T12:47:07.331Z,6.43
2023-04-23T12:49:36.722Z,5.80
2023-04-23T12:52:06.268Z,8.30
2023-04-23T12:54:37.103Z,5.97
2023-04-23T12:57:05.890Z,7.60
2023-04-23T12:59:33.543Z,6.40
2023-04-23T13:02:04.347Z,6.57
2023-04-23T13:04:32.952Z,6.47
2023-04-23T13:07:00.537Z,7.50
2023-04-23T13:09:28.665Z,6.43
2023-04-23T13:11:56.479Z,7.85
2023-04-23T13:14:24.032Z,6.82
2023-04-23T13:16:52.717Z,8.05
2023-04-23T13:19:20.881Z,7.47
2023-04-23T13:21:48.500Z,6.37
2023-04-23T13:24:16.182Z,7.43
2023-04-23T13:26:43.854Z,11.68
2023-04-23T13:29:11.530Z,9.18
2023-04-23T13:31:39.006Z,10.45
2023-04-23T13:34:06.781Z,6.53
2023-04-23T13:36:34.251Z,7.03
2023-04-23T13:39:01.749Z,8.50
2023-04-23T13:41:29.438Z,9.20
2023-04-23T13:43:56.891Z,10.18
2023-04-23T13:46:24.313Z,7.12
2023-04-23T13:48:53.501Z,10.73
2023-04-23T13:51:34.040Z,10.65
2023-04-23T13:54:03.510Z,11.45
2023-04-23T13:56:31.165Z,7.75
2023-04-23T13:59:18.840Z,8.13
2023-04-23T14:01:50.195Z,8.18
2023-04-23T14:04:18.600Z,7.47
2023-04-23T14:06:46.188Z,8.23
2023-04-23T14:09:13.678Z,12.55
2023-04-23T14:11:41.669Z,13.70
2023-04-23T14:14:09.186Z,11.05
2023-04-23T14:16:36.670Z,11.15
2023-04-23T14:19:04.457Z,9.75
2023-04-23T14:21:31.942Z,10.88
2023-04-23T14:24:08.556Z,10.13
2023-04-23T14:26:48.154Z,8.82
2023-04-23T14:29:28.137Z,12.63
2023-04-23T14:31:56.111Z,10.35
2023-04-23T14:34:23.548Z,13.30
2023-04-23T14:36:52.975Z,11.30
2023-04-23T14:39:25.827Z,10.25
2023-04-23T14:41:53.436Z,10.80
2023-04-23T14:44:23.446Z,12.57
2023-04-23T14:46:51.291Z,9.60
2023-04-23T14:49:20.719Z,10.60
2023-04-23T14:51:50.905Z,6.95
2023-04-23T14:54:18.452Z,10.75
2023-04-23T14:56:46.054Z,9.98
2023-04-23T14:59:13.960Z,9.52
2023-04-23T15:01:41.518Z,8.15
2023-04-23T15:04:11.193Z,10.65
2023-04-23T15:06:40.495Z,8.40
2023-04-23T15:09:07.961Z,7.85
2023-04-23T15:11:35.520Z,10.50
2023-04-23T15:14:25.344Z,7.53
2023-04-23T15:16:52.921Z,9.55
2023-04-23T15:19:20.710Z,7.65
2023-04-23T15:21:48.250Z,8.15
2023-04-23T15:24:17.032Z,16.73
2023-04-23T15:26:46.014Z,8.37
2023-04-23T15:29:14.106Z,14.68
2023-04-23T15:31:41.954Z,8.02
2023-04-23T15:34:11.595Z,8.50
2023-04-23T15:36:39.025Z,9.47
2023-04-23T15:39:07.442Z,8.75
2023-04-23T15:41:39.319Z,8.70
2023-04-23T15:44:09.414Z,10.57
2023-04-23T15:46:37.159Z,9.63
2023-04-23T15:49:05.658Z,7.35
2023-04-23T15:51:33.087Z,6.82
2023-04-23T15:54:02.242Z,8.68
2023-04-23T15:56:29.757Z,6.80
2023-04-23T15:58:57.132Z,7.22
2023-04-23T16:01:27.192Z,8.82
2023-04-23T16:04:09.397Z,8.05
2023-04-23T16:06:38.363Z,8.02
2023-04-23T16:09:09.214Z,8.35
2023-04-23T16:11:37.481Z,7.50
2023-04-23T16:14:05.230Z,9.13
2023-04-23T16:16:33.158Z,8.88
2023-04-23T16:19:01.966Z,6.68
2023-04-23T16:21:29.423Z,6.55
2023-04-23T16:23:57.876Z,7.45
2023-04-23T16:26:25.712Z,8.27
2023-04-23T16:29:05.555Z,7.68
2023-04-23T16:31:41.807Z,8.65
2023-04-23T16:34:09.189Z,10.32
2023-04-23T16:36:36.813Z,9.48
2023-04-23T16:39:05.113Z,9.13
2023-04-23T16:41:33.028Z,8.50
2023-04-23T16:44:00.607Z,10.10
2023-04-23T16:46:30.932Z,8.52
2023-04-23T16:48:59.198Z,5.57
2023-04-23T16:51:28.805Z,7.43
2023-04-23T16:53:56.969Z,6.85
2023-04-23T16:56:26.383Z,9.20
2023-04-23T16:58:54.131Z,9.70
2023-04-23T17:01:22.137Z,15.27
2023-04-23T17:03:49.654Z,11.80
2023-04-23T17:06:24.868Z,8.18
2023-04-23T17:08:52.958Z,11.98
2023-04-23T17:11:20.551Z,9.43
2023-04-23T17:13:49.331Z,11.70
2023-04-23T17:16:17.876Z,13.77
2023-04-23T17:18:46.486Z,7.55
2023-04-23T17:21:15.644Z,9.57
2023-04-23T17:23:44.914Z,10.82
2023-04-23T17:26:13.086Z,6.30
2023-04-23T17:28:41.499Z,10.00
2023-04-23T17:31:10.176Z,8.00
2023-04-23T17:33:39.257Z,10.77
2023-04-23T17:36:07.312Z,11.63
2023-04-23T17:38:37.039Z,9.77
2023-04-23T17:41:04.786Z,11.07
2023-04-23T17:43:35.163Z,8.05
2023-04-23T17:46:04.426Z,14.60
2023-04-23T17:48:33.181Z,9.15
2023-04-23T17:51:02.319Z,7.62
2023-04-23T17:53:31.613Z,9.85
2023-04-23T17:56:03.372Z,9.05
2023-04-23T17:58:31.874Z,12.52
2023-04-23T18:01:00.195Z,9.02
2023-04-23T18:03:30.571Z,10.40
2023-04-23T18:05:58.908Z,10.90
2023-04-23T18:08:29.215Z,10.07
2023-04-23T18:10:58.134Z,15.32
2023-04-23T18:13:27.586Z,13.50
2023-04-23T18:15:55.971Z,8.45
2023-04-23T18:18:24.430Z,8.30
2023-04-23T18:20:52.504Z,7.28
2023-04-23T18:23:24.330Z,9.30
2023-04-23T18:25:52.539Z,7.60
2023-04-23T18:28:20.370Z,7.10
2023-04-23T18:30:48.204Z,8.00
2023-04-23T18:33:19.690Z,6.32
2023-04-23T18:35:48.271Z,6.37
2023-04-23T18:38:30.844Z,7.45
2023-04-23T18:41:04.669Z,8.02
2023-04-23T18:43:33.438Z,5.75
2023-04-23T18:46:03.033Z,9.30
2023-04-23T18:48:34.354Z,7.85
2023-04-23T18:51:21.535Z,9.43
2023-04-23T18:53:49.563Z,10.43
2023-04-23T18:56:18.387Z,9.90
2023-04-23T18:58:46.851Z,7.12
2023-04-23T19:01:14.807Z,8.60
2023-04-23T19:03:58.537Z,8.85
2023-04-23T19:06:27.374Z,9.88
2023-04-23T19:08:56.180Z,10.23
2023-04-23T19:11:24.042Z,9.88
2023-04-23T19:13:53.607Z,8.20
2023-04-23T19:16:21.990Z,7.90
2023-04-23T19:18:50.702Z,11.07
2023-04-23T19:21:20.051Z,7.90
2023-04-23T19:23:48.168Z,10.30
2023-04-23T19:26:19.819Z,8.35
2023-04-23T19:28:48.357Z,7.18
2023-04-23T19:31:17.465Z,7.93
2023-04-23T19:33:47.997Z,9.65
2023-04-23T19:36:16.271Z,7.87
2023-04-23T19:38:44.742Z,7.25
2023-04-23T19:41:12.657Z,9.15
2023-04-23T19:43:42.535Z,9.68
2023-04-23T19:46:10.703Z,6.60
2023-04-23T19:48:38.859Z,6.90
2023-04-23T19:51:08.426Z,8.77
2023-04-23T19:53:36.685Z,10.93
2023-04-23T19:56:04.838Z,10.55
2023-04-23T19:58:33.101Z,12.37
2023-04-23T20:01:02.304Z,10.50
2023-04-23T20:03:32.172Z,9.25
2023-04-23T20:05:59.941Z,16.75
2023-04-23T20:08:30.141Z,7.65
2023-04-23T20:10:58.112Z,12.15
2023-04-23T20:13:25.849Z,11.57
2023-04-23T20:15:53.751Z,7.75
2023-04-23T20:18:22.460Z,8.77
2023-04-23T20:20:50.288Z,11.00
2023-04-23T20:23:17.876Z,8.10
2023-04-23T20:25:45.646Z,6.18
2023-04-23T20:28:13.177Z,8.70
2023-04-23T20:30:41.339Z,8.32
2023-04-23T20:33:10.826Z,6.93
2023-04-23T20:35:39.639Z,9.10
2023-04-23T20:38:08.026Z,7.32
2023-04-23T20:40:36.154Z,10.80
2023-04-23T20:43:05.653Z,8.27
2023-04-23T20:45:34.797Z,10.53
2023-04-23T20:48:03.778Z,8.90
2023-04-23T20:50:31.307Z,5.78
2023-04-23T20:52:58.744Z,6.45
2023-04-23T20:55:26.407Z,9.02
2023-04-23T20:57:53.808Z,9.63
2023-04-23T21:00:22.362Z,7.85
2023-04-23T21:02:50.250Z,14.38
2023-04-23T21:05:17.787Z,7.57
2023-04-23T21:07:45.387Z,7.05
2023-04-23T21:10:15.216Z,7.82
2023-04-23T21:12:43.432Z,7.12
2023-04-23T21:15:12.671Z,8.27
2023-04-23T21:17:40.378Z,7.40
2023-04-23T21:20:09.520Z,6.60
2023-04-23T21:22:36.872Z,7.47
2023-04-23T21:25:04.791Z,6.40
2023-04-23T21:27:32.178Z,7.72
2023-04-23T21:30:00.559Z,5.90
2023-04-23T21:32:28.309Z,8.45
2023-04-23T21:34:55.815Z,10.55
2023-04-23T21:37:23.249Z,5.50
2023-04-23T21:39:50.912Z,6.30
2023-04-23T21:42:18.409Z,8.15
2023-04-23T21:44:46.113Z,5.93
2023-04-23T21:47:13.822Z,7.97
2023-04-23T21:49:41.552Z,9.52
2023-04-23T21:52:09.177Z,8.60
2023-04-23T21:54:36.867Z,7.30
2023-04-23T21:57:04.290Z,6.70
2023-04-23T21:59:31.710Z,8.07
2023-04-23T22:01:59.410Z,7.25
2023-04-23T22:04:29.269Z,6.95
2023-04-23T22:07:02.391Z,5.55
2023-04-23T22:09:30.260Z,7.20
2023-04-23T22:14:28.382Z,6.22
2023-04-23T22:16:58.608Z,7.30
2023-04-23T22:19:26.186Z,6.00
2023-04-23T22:21:54.690Z,7.28
2023-04-23T22:24:22.889Z,8.27
2023-04-23T22:26:50.279Z,7.72
2023-04-23T22:29:17.662Z,6.50
2023-04-23T22:31:45.411Z,7.10
2023-04-23T22:34:12.845Z,6.80
2023-04-23T22:36:43.094Z,5.37
2023-04-23T22:39:10.824Z,6.95
2023-04-23T22:41:40.241Z,6.55
2023-04-23T22:44:09.279Z,3.87
2023-04-23T22:46:37.341Z,4.50
2023-04-23T22:49:07.874Z,7.93
2023-04-23T22:51:35.293Z,8.02
2023-04-23T22:54:02.979Z,5.43
2023-04-23T22:56:30.543Z,6.12
2023-04-23T22:58:57.997Z,4.82
2023-04-23T23:01:26.431Z,8.50
2023-04-23T23:03:54.264Z,7.50
2023-04-23T23:06:22.089Z,5.62
2023-04-23T23:08:49.860Z,6.57
2023-04-23T23:11:17.390Z,7.07
2023-04-23T23:13:45.396Z,5.37
2023-04-23T23:16:13.304Z,9.23
2023-04-23T23:18:40.694Z,6.40
2023-04-23T23:21:08.084Z,4.20
2023-04-23T23:23:36.497Z,6.18
2023-04-23T23:26:03.955Z,6.55
2023-04-23T23:28:31.339Z,5.00
2023-04-23T23:30:59.393Z,6.40
2023-04-23T23:33:27.182Z,4.75
2023-04-23T23:35:55.405Z,8.32
2023-04-23T23:38:23.144Z,5.12
2023-04-23T23:40:50.566Z,4.65
2023-04-23T23:43:17.978Z,5.87
2023-04-23T23:45:45.861Z,5.40
2023-04-23T23:48:13.332Z,5.78
2023-04-23T23:50:40.719Z,5.32
2023-04-23T23:53:08.457Z,5.75
2023-04-23T23:55:37.749Z,6.07
2023-04-23T23:58:05.142Z,5.87
